createdAt,value
2022-08-09T00:02:14.184Z,20.50
2022-08-09T00:06:18.272Z,20.30
2022-08-09T00:09:58.449Z,20.20
2022-08-09T00:13:40.889Z,20.20
2022-08-09T00:18:06.044Z,20.10
2022-08-09T00:21:27.387Z,20.00
2022-08-09T00:25:12.831Z,19.90
2022-08-09T00:28:55.679Z,19.70
2022-08-09T00:32:40.016Z,19.70
2022-08-09T00:36:29.677Z,19.60
2022-08-09T00:40:17.356Z,19.60
2022-08-09T00:44:15.308Z,19.60
2022-08-09T00:48:05.603Z,19.60
2022-08-09T00:51:54.252Z,19.50
2022-08-09T00:56:05.741Z,19.40
2022-08-09T00:59:46.678Z,19.40
2022-08-09T01:03:48.221Z,19.30
2022-08-09T01:08:00.627Z,19.30
2022-08-09T01:11:56.183Z,19.20
2022-08-09T01:15:52.116Z,19.20
2022-08-09T01:19:57.102Z,19.10
2022-08-09T01:24:01.698Z,19.10
2022-08-09T01:27:52.548Z,19.00
2022-08-09T01:32:29.681Z,18.90
2022-08-09T01:35:46.163Z,18.80
2022-08-09T01:39:35.763Z,18.70
2022-08-09T01:43:19.258Z,18.60
2022-08-09T01:47:07.428Z,18.60
2022-08-09T01:50:55.549Z,18.50
2022-08-09T01:54:48.496Z,18.40
2022-08-09T01:58:32.380Z,18.30
2022-08-09T02:02:16.937Z,18.20
2022-08-09T02:06:06.335Z,18.10
2022-08-09T02:10:04.119Z,18.10
2022-08-09T02:14:07.405Z,18.10
2022-08-09T02:18:00.908Z,18.00
2022-08-09T02:21:57.850Z,17.90
2022-08-09T02:25:49.456Z,17.80
2022-08-09T02:29:43.101Z,17.80
2022-08-09T02:33:58.674Z,17.70
2022-08-09T02:37:33.095Z,17.60
2022-08-09T02:41:47.237Z,17.50
2022-08-09T02:45:35.486Z,17.50
2022-08-09T02:49:38.377Z,17.50
2022-08-09T02:53:27.173Z,17.40
2022-08-09T02:57:14.131Z,17.30
2022-08-09T03:01:08.049Z,17.20
2022-08-09T03:04:52.176Z,17.20
2022-08-09T03:08:35.535Z,17.10
2022-08-09T03:12:18.827Z,17.00
2022-08-09T03:16:06.873Z,17.00
2022-08-09T03:19:58.092Z,16.90
2022-08-09T03:24:03.976Z,16.90
2022-08-09T03:27:52.852Z,16.80
2022-08-09T03:31:42.633Z,16.80
2022-08-09T03:36:13.892Z,16.60
2022-08-09T03:39:48.589Z,16.60
2022-08-09T03:43:37.836Z,16.40
2022-08-09T03:47:19.639Z,16.30
2022-08-09T03:51:05.152Z,16.20
2022-08-09T03:55:09.821Z,16.20
2022-08-09T03:58:52.003Z,16.20
2022-08-09T04:02:38.111Z,16.10
2022-08-09T04:06:27.020Z,16.10
2022-08-09T04:10:09.840Z,16.00
2022-08-09T04:14:59.111Z,15.90
2022-08-09T04:17:54.116Z,15.90
2022-08-09T04:21:41.900Z,15.80
2022-08-09T04:25:23.861Z,15.80
2022-08-09T04:29:13.356Z,15.70
2022-08-09T04:32:56.951Z,15.70
2022-08-09T04:36:40.405Z,15.70
2022-08-09T04:40:56.436Z,15.60
2022-08-09T04:44:39.216Z,15.60
2022-08-09T04:48:33.425Z,15.50
2022-08-09T04:52:18.391Z,15.50
2022-08-09T04:56:09.198Z,15.40
2022-08-09T04:59:54.246Z,15.40
2022-08-09T05:03:42.729Z,15.30
2022-08-09T05:07:29.386Z,15.30
2022-08-09T05:11:13.964Z,15.30
2022-08-09T05:14:57.616Z,15.20
2022-08-09T05:18:58.337Z,15.20
2022-08-09T05:23:55.003Z,15.20
2022-08-09T05:26:45.702Z,15.10
2022-08-09T05:30:31.243Z,15.10
2022-08-09T05:34:16.475Z,15.10
2022-08-09T05:37:59.311Z,15.10
2022-08-09T05:41:41.231Z,15.10
2022-08-09T05:45:24.836Z,15.10
2022-08-09T05:49:07.403Z,15.10
2022-08-09T05:53:21.444Z,15.10
2022-08-09T05:57:12.710Z,15.10
2022-08-09T06:00:55.940Z,15.10
2022-08-09T06:04:44.721Z,15.10
2022-08-09T06:08:28.057Z,15.10
2022-08-09T06:12:10.508Z,15.10
2022-08-09T06:15:53.432Z,15.10
2022-08-09T06:19:36.890Z,15.20
2022-08-09T06:23:18.854Z,15.20
2022-08-09T06:27:00.832Z,15.20
2022-08-09T06:30:43.365Z,15.30
2022-08-09T06:34:26.239Z,15.40
2022-08-09T06:38:11.802Z,15.40
2022-08-09T06:42:08.959Z,15.50
2022-08-09T06:46:06.833Z,15.60
2022-08-09T06:50:13.267Z,15.70
2022-08-09T06:53:55.811Z,15.70
2022-08-09T06:58:02.175Z,15.90
2022-08-09T07:01:54.229Z,16.00
2022-08-09T07:06:02.459Z,16.10
2022-08-09T07:09:59.590Z,16.20
2022-08-09T07:14:05.062Z,16.40
2022-08-09T07:17:56.121Z,16.50
2022-08-09T07:21:55.448Z,16.60
2022-08-09T07:25:43.384Z,16.70
2022-08-09T07:29:25.983Z,16.80
2022-08-09T07:33:16.387Z,16.90
2022-08-09T07:36:58.571Z,17.00
2022-08-09T07:41:08.181Z,17.10
2022-08-09T07:44:51.147Z,17.20
2022-08-09T07:48:36.554Z,17.30
2022-08-09T07:52:20.997Z,17.50
2022-08-09T07:56:06.431Z,17.60
2022-08-09T08:00:03.097Z,17.70
2022-08-09T08:03:45.943Z,17.80
2022-08-09T08:08:43.723Z,17.90
2022-08-09T08:12:19.775Z,18.00
2022-08-09T08:15:35.565Z,18.10
2022-08-09T08:19:20.409Z,18.20
2022-08-09T08:23:15.872Z,18.30
2022-08-09T08:26:59.838Z,18.40
2022-08-09T08:30:42.850Z,18.50
2022-08-09T08:34:25.606Z,18.60
2022-08-09T08:38:11.602Z,18.70
2022-08-09T08:41:54.346Z,18.90
2022-08-09T08:45:53.605Z,19.00
2022-08-09T08:49:49.355Z,19.20
2022-08-09T08:53:37.031Z,19.40
2022-08-09T08:57:20.992Z,19.50
2022-08-09T09:01:09.083Z,19.60
2022-08-09T09:05:05.929Z,19.70
2022-08-09T09:08:59.414Z,19.80
2022-08-09T09:12:44.456Z,19.90
2022-08-09T09:16:34.130Z,20.00
2022-08-09T09:20:16.593Z,20.10
2022-08-09T09:24:10.339Z,20.20
2022-08-09T09:28:10.638Z,20.30
2022-08-09T09:32:06.475Z,20.40
2022-08-09T09:36:03.637Z,20.50
2022-08-09T09:39:57.154Z,20.60
2022-08-09T09:44:11.721Z,20.80
2022-08-09T09:47:56.199Z,20.90
2022-08-09T09:51:41.664Z,21.10
2022-08-09T09:55:31.387Z,21.50
2022-08-09T09:59:20.720Z,22.30
2022-08-09T10:03:11.407Z,23.70
2022-08-09T10:06:55.633Z,25.20
2022-08-09T10:10:39.441Z,26.70
2022-08-09T10:14:33.372Z,28.10
2022-08-09T10:18:15.952Z,29.40
2022-08-09T10:21:59.950Z,30.60
2022-08-09T10:26:07.712Z,31.60
2022-08-09T10:30:28.329Z,32.50
2022-08-09T10:34:10.954Z,33.50
2022-08-09T10:37:51.967Z,34.20
2022-08-09T10:41:35.204Z,34.90
2022-08-09T10:45:17.852Z,35.50
2022-08-09T10:49:10.535Z,36.10
2022-08-09T10:53:11.749Z,36.60
2022-08-09T10:57:09.445Z,37.10
2022-08-09T11:03:02.940Z,37.80
2022-08-09T11:05:25.162Z,38.30
2022-08-09T11:09:17.506Z,38.90
2022-08-09T11:13:49.243Z,39.20
2022-08-09T11:17:22.247Z,39.20
2022-08-09T11:21:05.615Z,39.50
2022-08-09T11:24:57.882Z,40.00
2022-08-09T11:28:56.073Z,40.40
2022-08-09T11:32:42.831Z,40.80
2022-08-09T11:36:35.318Z,41.30
2022-08-09T11:40:29.872Z,41.70
2022-08-09T11:44:13.480Z,42.00
2022-08-09T11:48:05.247Z,41.90
2022-08-09T11:53:55.123Z,41.70
2022-08-09T11:56:15.147Z,41.40
2022-08-09T12:00:13.062Z,41.40
2022-08-09T12:04:03.373Z,41.80
2022-08-09T12:07:47.264Z,42.10
2022-08-09T12:11:31.472Z,42.60
2022-08-09T12:15:50.323Z,43.00
2022-08-09T12:19:32.039Z,43.40
2022-08-09T12:23:14.161Z,43.70
2022-08-09T12:29:12.150Z,44.00
2022-08-09T12:32:02.566Z,44.40
2022-08-09T12:35:41.797Z,44.60
2022-08-09T12:39:24.877Z,44.80
2022-08-09T12:43:09.696Z,44.90
2022-08-09T12:46:51.653Z,45.10
2022-08-09T12:50:35.921Z,45.20
2022-08-09T12:54:19.064Z,45.30
2022-08-09T12:58:12.303Z,45.60
2022-08-09T13:02:09.898Z,45.80
2022-08-09T13:06:14.307Z,45.80
2022-08-09T13:10:04.246Z,45.90
2022-08-09T13:14:37.880Z,45.90
2022-08-09T13:18:04.985Z,45.90
2022-08-09T13:22:35.194Z,45.90
2022-08-09T13:25:53.349Z,45.90
2022-08-09T13:30:02.859Z,46.30
2022-08-09T13:33:53.479Z,46.50
2022-08-09T13:37:51.052Z,46.50
2022-08-09T13:41:59.139Z,46.40
2022-08-09T13:46:42.579Z,46.30
2022-08-09T13:49:56.286Z,46.50
2022-08-09T13:53:43.618Z,46.60
2022-08-09T13:57:35.755Z,46.50
2022-08-09T14:01:56.607Z,46.60
2022-08-09T14:05:58.820Z,46.70
2022-08-09T14:09:25.544Z,46.50
2022-08-09T14:13:12.085Z,46.50
2022-08-09T14:17:03.809Z,46.50
2022-08-09T14:20:46.801Z,46.10
2022-08-09T14:24:32.420Z,46.10
2022-08-09T14:28:15.452Z,46.00
2022-08-09T14:32:04.647Z,45.60
2022-08-09T14:35:53.586Z,45.30
2022-08-09T14:39:45.795Z,44.80
2022-08-09T14:43:47.514Z,43.90
2022-08-09T14:47:45.270Z,42.60
2022-08-09T14:51:31.365Z,41.40
2022-08-09T14:55:24.560Z,40.30
2022-08-09T14:59:08.631Z,39.50
2022-08-09T15:02:56.399Z,39.00
2022-08-09T15:06:40.264Z,38.50
2022-08-09T15:10:24.989Z,38.20
2022-08-09T15:14:13.271Z,37.60
2022-08-09T15:17:56.029Z,37.20
2022-08-09T15:22:01.230Z,36.90
2022-08-09T15:25:41.462Z,36.90
2022-08-09T15:30:58.819Z,36.70
2022-08-09T15:34:15.436Z,36.60
2022-08-09T15:37:57.322Z,36.50
2022-08-09T15:41:42.213Z,36.40
2022-08-09T15:45:29.877Z,36.30
2022-08-09T15:49:22.704Z,36.20
2022-08-09T15:53:06.664Z,36.00
2022-08-09T15:57:00.429Z,36.00
2022-08-09T16:00:42.507Z,35.90
2022-08-09T16:04:27.306Z,35.80
2022-08-09T16:08:24.762Z,35.70
2022-08-09T16:12:12.550Z,35.70
2022-08-09T16:16:04.534Z,35.70
2022-08-09T16:20:04.771Z,35.70
2022-08-09T16:23:55.036Z,35.60
2022-08-09T16:27:38.565Z,35.60
2022-08-09T16:32:10.361Z,35.50
2022-08-09T16:35:39.191Z,35.40
2022-08-09T16:39:27.051Z,35.20
2022-08-09T16:43:22.252Z,35.00
2022-08-09T16:48:39.026Z,34.90
2022-08-09T16:51:08.029Z,34.70
2022-08-09T16:54:50.611Z,34.60
2022-08-09T16:58:35.649Z,34.40
2022-08-09T17:02:17.991Z,34.30
2022-08-09T17:06:32.088Z,34.20
2022-08-09T17:10:12.332Z,34.20
2022-08-09T17:14:00.959Z,34.00
2022-08-09T17:17:50.294Z,34.00
2022-08-09T17:21:33.167Z,33.90
2022-08-09T17:25:15.370Z,33.70
2022-08-09T17:28:57.204Z,33.60
2022-08-09T17:32:39.689Z,33.40
2022-08-09T17:36:26.327Z,33.30
2022-08-09T17:40:16.931Z,33.20
2022-08-09T17:44:38.564Z,33.10
2022-08-09T17:48:02.831Z,33.00
2022-08-09T17:51:44.934Z,32.90
2022-08-09T17:55:47.209Z,32.80
2022-08-09T17:59:36.574Z,32.60
2022-08-09T18:03:20.352Z,32.50
2022-08-09T18:07:07.503Z,32.30
2022-08-09T18:11:00.648Z,32.20
2022-08-09T18:14:49.720Z,32.10
2022-08-09T18:18:33.029Z,31.90
2022-08-09T18:22:17.188Z,31.80
2022-08-09T18:26:00.053Z,31.70
2022-08-09T18:30:34.665Z,31.60
2022-08-09T18:33:53.078Z,31.40
2022-08-09T18:37:48.841Z,31.30
2022-08-09T18:41:36.977Z,31.10
2022-08-09T18:46:51.367Z,31.00
2022-08-09T18:49:26.263Z,30.80
2022-08-09T18:53:13.350Z,30.80
2022-08-09T18:56:55.604Z,30.70
2022-08-09T19:00:37.560Z,30.60
2022-08-09T19:04:24.837Z,30.50
2022-08-09T19:08:19.674Z,30.40
2022-08-09T19:12:01.836Z,30.30
2022-08-09T19:15:45.083Z,30.20
2022-08-09T19:19:41.433Z,30.10
2022-08-09T19:24:33.573Z,30.00
2022-08-09T19:27:28.357Z,29.90
2022-08-09T19:31:10.920Z,29.80
2022-08-09T19:34:54.023Z,29.70
2022-08-09T19:38:36.321Z,29.50
2022-08-09T19:42:31.384Z,29.30
2022-08-09T19:46:14.719Z,29.10
2022-08-09T19:50:08.042Z,28.90
2022-08-09T19:54:00.518Z,28.80
2022-08-09T19:57:42.529Z,28.60
2022-08-09T20:01:24.807Z,28.30
2022-08-09T20:05:26.954Z,28.20
2022-08-09T20:09:20.610Z,28.00
2022-08-09T20:13:16.469Z,27.80
2022-08-09T20:17:02.525Z,27.70
2022-08-09T20:20:44.565Z,27.50
2022-08-09T20:24:32.082Z,27.40
2022-08-09T20:28:24.422Z,27.30
2022-08-09T20:32:30.642Z,27.20
2022-08-09T20:36:14.776Z,27.00
2022-08-09T20:40:16.033Z,26.90
2022-08-09T20:44:00.141Z,26.80
2022-08-09T20:47:47.825Z,26.60
2022-08-09T20:51:30.686Z,26.40
2022-08-09T20:55:23.128Z,26.20
2022-08-09T20:59:09.865Z,26.00
2022-08-09T21:02:52.236Z,25.90
2022-08-09T21:06:35.038Z,25.80
2022-08-09T21:10:19.279Z,25.80
2022-08-09T21:14:01.163Z,25.80
2022-08-09T21:18:23.352Z,25.70
2022-08-09T21:21:53.033Z,25.40
2022-08-09T21:25:59.717Z,25.30
2022-08-09T21:29:48.700Z,25.20
2022-08-09T21:33:36.259Z,25.00
2022-08-09T21:37:19.736Z,24.90
2022-08-09T21:41:08.416Z,24.70
2022-08-09T21:44:50.897Z,24.60
2022-08-09T21:48:34.379Z,24.50
2022-08-09T21:52:20.607Z,24.30
2022-08-09T21:56:03.589Z,24.30
2022-08-09T21:59:45.597Z,24.10
2022-08-09T22:03:27.827Z,24.00
2022-08-09T22:07:09.748Z,24.00
2022-08-09T22:11:00.552Z,23.80
2022-08-09T22:14:58.095Z,23.80
2022-08-09T22:18:54.390Z,23.70
2022-08-09T22:22:37.085Z,23.60
2022-08-09T22:26:23.525Z,23.40
2022-08-09T22:30:31.466Z,23.30
2022-08-09T22:34:15.344Z,23.20
2022-08-09T22:38:06.934Z,23.10
2022-08-09T22:41:49.809Z,23.00
2022-08-09T22:48:13.939Z,22.80
2022-08-09T22:49:36.683Z,22.70
2022-08-09T22:53:23.423Z,22.50
2022-08-09T22:57:05.852Z,22.40
2022-08-09T23:00:51.689Z,22.30
2022-08-09T23:04:33.546Z,22.30
2022-08-09T23:08:39.003Z,22.20
2022-08-09T23:12:20.980Z,22.20
2022-08-09T23:16:03.761Z,22.10
2022-08-09T23:20:06.903Z,22.00
2022-08-09T23:24:06.014Z,22.00
2022-08-09T23:27:57.254Z,21.90
2022-08-09T23:31:54.289Z,21.80
2022-08-09T23:36:04.731Z,21.70
2022-08-09T23:39:41.352Z,21.70
2022-08-09T23:43:23.349Z,21.50
2022-08-09T23:47:05.260Z,21.40
2022-08-09T23:50:47.252Z,21.40
2022-08-09T23:54:29.057Z,21.30
2022-08-09T23:58:25.945Z,21.20
